This is the latest recevied weather packets stored in our database for station/object KC8YYF. If no packets are shown the sender has not sent any weather packets the latest 10 day(s).
| Time | Temp. | Humidity | Pressure | Rain* | Wind** | Luminosity | Snow |
|---|---|---|---|---|---|---|---|
| 1777554498 | 6.11° C | 84% | 1014.2 hPa | 0 mm | - | 44 W/m² | - |
| 1777554194 | 7.22° C | 84% | 1014.1 hPa | 0 mm | - | 61 W/m² | - |
| 1777553891 | 6.11° C | 86% | 1014 hPa | 0 mm | - | 57 W/m² | - |
| 1777553587 | 6.11° C | 87% | 1014 hPa | 0 mm | - | 53 W/m² | - |
| 1777553284 | 6.11° C | 87% | 1013.8 hPa | 0 mm | - | 42 W/m² | - |
| 1777552980 | 6.11° C | 87% | 1013.7 hPa | 0 mm | - | 43 W/m² | - |
| 1777552679 | 5.56° C | 87% | 1013.7 hPa | 0 mm | - | 31 W/m² | - |
| 1777552377 | 6.11° C | 89% | 1013.5 hPa | 0 mm | - | 37 W/m² | - |
| 1777552073 | 5.56° C | 88% | 1013.9 hPa | 0 mm | - | 33 W/m² | - |
| 1777551770 | 6.11° C | 88% | 1013.8 hPa | 0 mm | - | 40 W/m² | - |
| 1777551468 | 6.11° C | 89% | 1013.5 hPa | 0 mm | - | 37 W/m² | - |
| 1777551164 | 5.56° C | 89% | 1013.5 hPa | 0 mm | - | 44 W/m² | - |
| 1777550862 | 5.56° C | 90% | 1013.6 hPa | 0 mm | - | 40 W/m² | - |
| 1777550558 | 5.56° C | 90% | 1013.5 hPa | 0 mm | - | 20 W/m² | - |
| 1777550254 | 5° C | 90% | 1013.5 hPa | 0 mm | - | 17 W/m² | - |
| 1777549951 | 5.56° C | 90% | 1013.4 hPa | 0 mm | - | 20 W/m² | - |
| 1777549647 | 5.56° C | 91% | 1013.4 hPa | 0 mm | - | 28 W/m² | - |
| 1777549342 | 5.56° C | 92% | 1013.5 hPa | 0 mm | - | 23 W/m² | - |
| 1777549040 | 5.56° C | 93% | 1013.2 hPa | 0 mm | - | 17 W/m² | - |
| 1777548736 | 5° C | 93% | 1013.2 hPa | 0 mm | - | 11 W/m² | - |
| 1777548434 | 5° C | 94% | 1013.2 hPa | 0 mm | - | 10 W/m² | - |
| 1777548130 | 5.56° C | 95% | 1013 hPa | 0 mm | - | 11 W/m² | - |
| 1777547826 | 5.56° C | 95% | 1013.1 hPa | 0 mm | - | 6 W/m² | - |
| 1777547522 | 5.56° C | 95% | 1013.1 hPa | 0 mm | - | 4 W/m² | - |
| 1777547220 | 5.56° C | 95% | 1013 hPa | 0 mm | - | 1 W/m² | - |
* Rain latest hour (hover to see other rain measurements)
** Current wind speed in m/s (hover to see current wind gust speed)